sensor_id;sensor_type;location;lat;lon;timestamp;P1;durP1;ratioP1;P2;durP2;ratioP2
71947;SDS011;63257;55.082;38.772;2022-12-08T00:01:08;10.17;;;3.60;;
71947;SDS011;63257;55.082;38.772;2022-12-08T00:03:39;9.73;;;3.92;;
71947;SDS011;63257;55.082;38.772;2022-12-08T00:06:05;9.45;;;3.70;;
71947;SDS011;63257;55.082;38.772;2022-12-08T00:08:56;8.73;;;3.50;;
71947;SDS011;63257;55.082;38.772;2022-12-08T00:11:43;10.60;;;3.72;;
71947;SDS011;63257;55.082;38.772;2022-12-08T00:14:09;9.07;;;3.35;;
71947;SDS011;63257;55.082;38.772;2022-12-08T00:16:35;11.73;;;3.83;;
71947;SDS011;63257;55.082;38.772;2022-12-08T00:19:01;9.55;;;3.45;;
71947;SDS011;63257;55.082;38.772;2022-12-08T00:21:27;9.65;;;3.20;;
71947;SDS011;63257;55.082;38.772;2022-12-08T00:23:54;10.90;;;4.13;;
71947;SDS011;63257;55.082;38.772;2022-12-08T00:26:20;9.85;;;3.22;;
71947;SDS011;63257;55.082;38.772;2022-12-08T00:28:47;10.98;;;4.05;;
71947;SDS011;63257;55.082;38.772;2022-12-08T00:31:13;8.70;;;3.33;;
71947;SDS011;63257;55.082;38.772;2022-12-08T00:33:39;10.57;;;3.50;;
71947;SDS011;63257;55.082;38.772;2022-12-08T00:36:08;11.40;;;3.63;;
71947;SDS011;63257;55.082;38.772;2022-12-08T00:38:37;9.88;;;3.50;;
71947;SDS011;63257;55.082;38.772;2022-12-08T00:41:06;10.40;;;3.67;;
71947;SDS011;63257;55.082;38.772;2022-12-08T00:43:36;8.70;;;2.83;;
71947;SDS011;63257;55.082;38.772;2022-12-08T00:46:02;9.63;;;2.78;;
71947;SDS011;63257;55.082;38.772;2022-12-08T00:48:28;9.07;;;3.35;;
71947;SDS011;63257;55.082;38.772;2022-12-08T00:50:54;12.60;;;3.37;;
71947;SDS011;63257;55.082;38.772;2022-12-08T00:53:19;9.13;;;3.45;;
71947;SDS011;63257;55.082;38.772;2022-12-08T00:55:45;9.37;;;3.37;;
71947;SDS011;63257;55.082;38.772;2022-12-08T00:58:11;8.85;;;3.65;;
71947;SDS011;63257;55.082;38.772;2022-12-08T01:00:40;10.10;;;3.67;;
71947;SDS011;63257;55.082;38.772;2022-12-08T01:03:10;8.20;;;3.08;;
71947;SDS011;63257;55.082;38.772;2022-12-08T01:05:37;9.55;;;3.40;;
71947;SDS011;63257;55.082;38.772;2022-12-08T01:08:04;9.73;;;3.60;;
71947;SDS011;63257;55.082;38.772;2022-12-08T01:10:30;8.38;;;3.30;;
71947;SDS011;63257;55.082;38.772;2022-12-08T01:13:00;10.52;;;3.13;;
71947;SDS011;63257;55.082;38.772;2022-12-08T01:15:26;10.37;;;3.17;;
71947;SDS011;63257;55.082;38.772;2022-12-08T01:17:51;11.85;;;3.63;;
71947;SDS011;63257;55.082;38.772;2022-12-08T01:20:17;8.60;;;2.77;;
71947;SDS011;63257;55.082;38.772;2022-12-08T01:22:43;8.93;;;2.65;;
71947;SDS011;63257;55.082;38.772;2022-12-08T01:25:09;11.63;;;3.45;;
71947;SDS011;63257;55.082;38.772;2022-12-08T01:27:35;9.17;;;2.93;;
71947;SDS011;63257;55.082;38.772;2022-12-08T01:30:01;8.63;;;3.28;;
71947;SDS011;63257;55.082;38.772;2022-12-08T01:32:29;9.63;;;3.40;;
71947;SDS011;63257;55.082;38.772;2022-12-08T01:34:55;8.77;;;3.20;;
71947;SDS011;63257;55.082;38.772;2022-12-08T01:37:20;11.10;;;3.60;;
71947;SDS011;63257;55.082;38.772;2022-12-08T01:39:46;8.73;;;3.05;;
71947;SDS011;63257;55.082;38.772;2022-12-08T01:42:21;10.67;;;3.57;;
71947;SDS011;63257;55.082;38.772;2022-12-08T01:44:56;9.10;;;3.50;;
71947;SDS011;63257;55.082;38.772;2022-12-08T01:47:26;10.85;;;3.47;;
71947;SDS011;63257;55.082;38.772;2022-12-08T01:49:57;10.05;;;3.33;;
71947;SDS011;63257;55.082;38.772;2022-12-08T01:53:06;13.33;;;3.40;;
71947;SDS011;63257;55.082;38.772;2022-12-08T01:55:40;8.73;;;3.17;;
71947;SDS011;63257;55.082;38.772;2022-12-08T01:58:19;9.90;;;2.95;;
71947;SDS011;63257;55.082;38.772;2022-12-08T02:00:48;7.73;;;2.60;;
71947;SDS011;63257;55.082;38.772;2022-12-08T02:03:27;9.70;;;2.72;;
71947;SDS011;63257;55.082;38.772;2022-12-08T02:05:58;7.55;;;3.10;;
71947;SDS011;63257;55.082;38.772;2022-12-08T02:08:24;13.77;;;3.70;;
71947;SDS011;63257;55.082;38.772;2022-12-08T02:10:52;10.23;;;3.40;;
71947;SDS011;63257;55.082;38.772;2022-12-08T02:13:18;13.82;;;3.22;;
71947;SDS011;63257;55.082;38.772;2022-12-08T02:16:04;9.10;;;2.87;;
71947;SDS011;63257;55.082;38.772;2022-12-08T02:21:49;10.20;;;3.17;;
71947;SDS011;63257;55.082;38.772;2022-12-08T02:42:11;8.63;;;3.00;;
71947;SDS011;63257;55.082;38.772;2022-12-08T02:44:57;10.03;;;3.20;;
71947;SDS011;63257;55.082;38.772;2022-12-08T02:47:34;11.55;;;3.53;;
71947;SDS011;63257;55.082;38.772;2022-12-08T02:50:00;10.93;;;3.30;;
71947;SDS011;63257;55.082;38.772;2022-12-08T02:54:58;10.10;;;3.45;;
71947;SDS011;63257;55.082;38.772;2022-12-08T03:00:35;9.93;;;2.85;;
71947;SDS011;63257;55.082;38.772;2022-12-08T03:05:56;8.73;;;3.40;;
71947;SDS011;63257;55.082;38.772;2022-12-08T03:08:36;8.20;;;3.17;;
71947;SDS011;63257;55.082;38.772;2022-12-08T03:11:24;10.90;;;3.23;;
71947;SDS011;63257;55.082;38.772;2022-12-08T03:14:02;9.02;;;3.40;;
71947;SDS011;63257;55.082;38.772;2022-12-08T03:16:31;11.43;;;2.97;;
71947;SDS011;63257;55.082;38.772;2022-12-08T03:21:51;7.28;;;2.97;;
71947;SDS011;63257;55.082;38.772;2022-12-08T03:24:25;10.70;;;3.30;;
71947;SDS011;63257;55.082;38.772;2022-12-08T03:26:53;10.88;;;3.60;;
71947;SDS011;63257;55.082;38.772;2022-12-08T03:29:44;9.07;;;3.10;;
71947;SDS011;63257;55.082;38.772;2022-12-08T03:34:47;10.60;;;3.25;;
71947;SDS011;63257;55.082;38.772;2022-12-08T03:37:14;10.93;;;2.70;;
71947;SDS011;63257;55.082;38.772;2022-12-08T03:39:41;8.43;;;3.30;;
71947;SDS011;63257;55.082;38.772;2022-12-08T03:42:07;10.50;;;3.20;;
71947;SDS011;63257;55.082;38.772;2022-12-08T03:44:32;6.80;;;2.83;;
71947;SDS011;63257;55.082;38.772;2022-12-08T03:47:01;7.47;;;3.10;;
71947;SDS011;63257;55.082;38.772;2022-12-08T03:49:27;8.90;;;2.90;;
71947;SDS011;63257;55.082;38.772;2022-12-08T03:51:53;10.82;;;3.35;;
71947;SDS011;63257;55.082;38.772;2022-12-08T03:54:18;12.05;;;3.55;;
71947;SDS011;63257;55.082;38.772;2022-12-08T03:56:44;9.20;;;3.47;;
71947;SDS011;63257;55.082;38.772;2022-12-08T03:59:11;11.40;;;2.97;;
71947;SDS011;63257;55.082;38.772;2022-12-08T04:01:37;8.63;;;2.70;;
71947;SDS011;63257;55.082;38.772;2022-12-08T04:04:02;9.75;;;3.08;;
71947;SDS011;63257;55.082;38.772;2022-12-08T04:06:28;10.98;;;3.28;;
71947;SDS011;63257;55.082;38.772;2022-12-08T04:08:54;12.23;;;4.00;;
71947;SDS011;63257;55.082;38.772;2022-12-08T04:11:21;11.95;;;3.75;;
71947;SDS011;63257;55.082;38.772;2022-12-08T04:13:47;10.55;;;3.03;;
71947;SDS011;63257;55.082;38.772;2022-12-08T04:16:15;10.02;;;3.33;;
71947;SDS011;63257;55.082;38.772;2022-12-08T04:18:52;8.90;;;3.20;;
71947;SDS011;63257;55.082;38.772;2022-12-08T04:21:19;9.13;;;3.70;;
71947;SDS011;63257;55.082;38.772;2022-12-08T04:23:48;11.83;;;3.73;;
71947;SDS011;63257;55.082;38.772;2022-12-08T04:26:14;8.10;;;2.90;;
71947;SDS011;63257;55.082;38.772;2022-12-08T04:28:40;9.27;;;3.33;;
71947;SDS011;63257;55.082;38.772;2022-12-08T04:31:06;9.30;;;3.43;;
71947;SDS011;63257;55.082;38.772;2022-12-08T04:33:32;11.65;;;3.40;;
71947;SDS011;63257;55.082;38.772;2022-12-08T04:36:01;10.93;;;3.65;;
71947;SDS011;63257;55.082;38.772;2022-12-08T04:38:27;9.50;;;3.47;;
71947;SDS011;63257;55.082;38.772;2022-12-08T04:40:53;11.20;;;3.30;;
71947;SDS011;63257;55.082;38.772;2022-12-08T04:43:19;8.13;;;3.20;;
71947;SDS011;63257;55.082;38.772;2022-12-08T04:45:45;7.93;;;3.15;;
71947;SDS011;63257;55.082;38.772;2022-12-08T04:48:12;10.60;;;3.13;;
71947;SDS011;63257;55.082;38.772;2022-12-08T04:50:42;9.87;;;3.50;;
71947;SDS011;63257;55.082;38.772;2022-12-08T04:53:09;13.07;;;3.55;;
71947;SDS011;63257;55.082;38.772;2022-12-08T04:55:40;13.60;;;4.13;;
71947;SDS011;63257;55.082;38.772;2022-12-08T04:58:12;11.05;;;2.47;;
71947;SDS011;63257;55.082;38.772;2022-12-08T05:00:39;9.05;;;3.42;;
71947;SDS011;63257;55.082;38.772;2022-12-08T05:03:05;9.75;;;3.33;;
71947;SDS011;63257;55.082;38.772;2022-12-08T05:05:31;10.97;;;3.13;;
71947;SDS011;63257;55.082;38.772;2022-12-08T05:07:57;8.68;;;2.85;;
71947;SDS011;63257;55.082;38.772;2022-12-08T05:10:23;8.87;;;3.10;;
71947;SDS011;63257;55.082;38.772;2022-12-08T05:12:50;7.95;;;3.40;;
71947;SDS011;63257;55.082;38.772;2022-12-08T05:15:15;7.78;;;3.72;;
71947;SDS011;63257;55.082;38.772;2022-12-08T05:17:41;10.40;;;3.17;;
71947;SDS011;63257;55.082;38.772;2022-12-08T05:20:07;11.73;;;3.80;;
71947;SDS011;63257;55.082;38.772;2022-12-08T05:22:34;9.10;;;3.00;;
71947;SDS011;63257;55.082;38.772;2022-12-08T05:25:00;10.93;;;4.03;;
71947;SDS011;63257;55.082;38.772;2022-12-08T05:27:26;9.07;;;3.70;;
71947;SDS011;63257;55.082;38.772;2022-12-08T05:29:52;12.98;;;3.47;;
71947;SDS011;63257;55.082;38.772;2022-12-08T05:32:18;10.83;;;3.87;;
71947;SDS011;63257;55.082;38.772;2022-12-08T05:34:43;10.88;;;3.63;;
71947;SDS011;63257;55.082;38.772;2022-12-08T05:37:10;11.80;;;4.47;;
71947;SDS011;63257;55.082;38.772;2022-12-08T05:39:36;10.10;;;3.70;;
71947;SDS011;63257;55.082;38.772;2022-12-08T05:42:02;15.15;;;4.55;;
71947;SDS011;63257;55.082;38.772;2022-12-08T05:44:28;13.33;;;4.70;;
71947;SDS011;63257;55.082;38.772;2022-12-08T05:46:54;14.93;;;4.38;;
71947;SDS011;63257;55.082;38.772;2022-12-08T05:49:19;14.03;;;4.40;;
71947;SDS011;63257;55.082;38.772;2022-12-08T05:51:46;10.82;;;3.80;;
71947;SDS011;63257;55.082;38.772;2022-12-08T05:54:12;12.23;;;4.03;;
71947;SDS011;63257;55.082;38.772;2022-12-08T05:56:38;11.23;;;3.70;;
71947;SDS011;63257;55.082;38.772;2022-12-08T05:59:05;10.30;;;3.67;;
71947;SDS011;63257;55.082;38.772;2022-12-08T06:01:31;13.48;;;3.83;;
71947;SDS011;63257;55.082;38.772;2022-12-08T06:03:59;11.82;;;4.10;;
71947;SDS011;63257;55.082;38.772;2022-12-08T06:06:26;11.43;;;3.83;;
71947;SDS011;63257;55.082;38.772;2022-12-08T06:08:53;9.93;;;4.03;;
71947;SDS011;63257;55.082;38.772;2022-12-08T06:11:20;10.02;;;4.05;;
71947;SDS011;63257;55.082;38.772;2022-12-08T06:13:48;13.07;;;3.63;;
71947;SDS011;63257;55.082;38.772;2022-12-08T06:16:14;12.27;;;4.20;;
71947;SDS011;63257;55.082;38.772;2022-12-08T06:18:41;9.18;;;3.20;;
71947;SDS011;63257;55.082;38.772;2022-12-08T06:21:09;10.02;;;3.38;;
71947;SDS011;63257;55.082;38.772;2022-12-08T06:23:36;11.07;;;3.47;;
71947;SDS011;63257;55.082;38.772;2022-12-08T06:26:02;11.73;;;4.10;;
71947;SDS011;63257;55.082;38.772;2022-12-08T06:28:30;12.48;;;3.80;;
71947;SDS011;63257;55.082;38.772;2022-12-08T06:30:57;8.95;;;3.33;;
71947;SDS011;63257;55.082;38.772;2022-12-08T06:33:24;11.27;;;3.00;;
71947;SDS011;63257;55.082;38.772;2022-12-08T06:35:50;9.20;;;3.10;;
71947;SDS011;63257;55.082;38.772;2022-12-08T06:38:16;10.83;;;3.50;;
71947;SDS011;63257;55.082;38.772;2022-12-08T06:40:43;9.82;;;4.30;;
71947;SDS011;63257;55.082;38.772;2022-12-08T06:43:09;12.85;;;3.78;;
71947;SDS011;63257;55.082;38.772;2022-12-08T06:45:35;9.17;;;3.83;;
71947;SDS011;63257;55.082;38.772;2022-12-08T06:48:01;10.57;;;3.45;;
71947;SDS011;63257;55.082;38.772;2022-12-08T06:50:27;10.35;;;4.22;;
71947;SDS011;63257;55.082;38.772;2022-12-08T06:52:53;12.55;;;4.25;;
71947;SDS011;63257;55.082;38.772;2022-12-08T06:55:19;17.00;;;6.43;;
71947;SDS011;63257;55.082;38.772;2022-12-08T06:57:45;11.70;;;4.35;;
71947;SDS011;63257;55.082;38.772;2022-12-08T07:00:11;11.82;;;4.70;;
71947;SDS011;63257;55.082;38.772;2022-12-08T07:02:37;17.50;;;3.88;;
71947;SDS011;63257;55.082;38.772;2022-12-08T07:05:03;14.73;;;4.03;;
71947;SDS011;63257;55.082;38.772;2022-12-08T07:07:29;10.00;;;3.80;;
71947;SDS011;63257;55.082;38.772;2022-12-08T07:09:55;11.57;;;3.83;;
71947;SDS011;63257;55.082;38.772;2022-12-08T07:12:21;12.20;;;3.92;;
71947;SDS011;63257;55.082;38.772;2022-12-08T07:14:47;9.25;;;3.22;;
71947;SDS011;63257;55.082;38.772;2022-12-08T07:17:13;10.57;;;3.97;;
71947;SDS011;63257;55.082;38.772;2022-12-08T07:19:39;11.60;;;3.97;;
71947;SDS011;63257;55.082;38.772;2022-12-08T07:22:05;8.00;;;2.42;;
71947;SDS011;63257;55.082;38.772;2022-12-08T07:24:31;10.03;;;3.23;;
71947;SDS011;63257;55.082;38.772;2022-12-08T07:26:57;10.38;;;3.80;;
71947;SDS011;63257;55.082;38.772;2022-12-08T07:29:24;9.48;;;3.78;;
71947;SDS011;63257;55.082;38.772;2022-12-08T07:31:50;10.30;;;3.83;;
71947;SDS011;63257;55.082;38.772;2022-12-08T07:34:16;13.80;;;4.13;;
71947;SDS011;63257;55.082;38.772;2022-12-08T07:36:41;9.70;;;3.27;;
71947;SDS011;63257;55.082;38.772;2022-12-08T07:39:07;11.57;;;4.00;;
71947;SDS011;63257;55.082;38.772;2022-12-08T07:41:33;12.52;;;4.18;;
71947;SDS011;63257;55.082;38.772;2022-12-08T07:43:59;11.43;;;3.90;;
71947;SDS011;63257;55.082;38.772;2022-12-08T07:46:25;13.00;;;4.10;;
71947;SDS011;63257;55.082;38.772;2022-12-08T07:48:52;13.17;;;4.07;;
71947;SDS011;63257;55.082;38.772;2022-12-08T07:51:19;13.95;;;4.13;;
71947;SDS011;63257;55.082;38.772;2022-12-08T07:53:46;11.18;;;3.72;;
71947;SDS011;63257;55.082;38.772;2022-12-08T07:56:13;9.38;;;3.60;;
71947;SDS011;63257;55.082;38.772;2022-12-08T07:58:39;8.80;;;3.17;;
71947;SDS011;63257;55.082;38.772;2022-12-08T08:01:05;9.75;;;3.88;;
71947;SDS011;63257;55.082;38.772;2022-12-08T08:03:42;8.02;;;3.13;;
71947;SDS011;63257;55.082;38.772;2022-12-08T08:06:08;11.43;;;3.60;;
71947;SDS011;63257;55.082;38.772;2022-12-08T08:08:34;8.67;;;3.40;;
71947;SDS011;63257;55.082;38.772;2022-12-08T08:11:00;9.32;;;3.45;;
71947;SDS011;63257;55.082;38.772;2022-12-08T08:13:25;9.63;;;3.40;;
71947;SDS011;63257;55.082;38.772;2022-12-08T08:15:51;10.03;;;3.70;;
71947;SDS011;63257;55.082;38.772;2022-12-08T08:18:17;9.27;;;3.60;;
71947;SDS011;63257;55.082;38.772;2022-12-08T08:20:43;10.10;;;3.40;;
71947;SDS011;63257;55.082;38.772;2022-12-08T08:23:08;10.90;;;3.75;;
71947;SDS011;63257;55.082;38.772;2022-12-08T08:25:35;9.33;;;2.60;;
71947;SDS011;63257;55.082;38.772;2022-12-08T08:28:01;8.50;;;2.97;;
71947;SDS011;63257;55.082;38.772;2022-12-08T08:30:27;10.88;;;3.30;;
71947;SDS011;63257;55.082;38.772;2022-12-08T08:32:53;9.73;;;3.20;;
71947;SDS011;63257;55.082;38.772;2022-12-08T08:35:18;12.38;;;3.10;;
71947;SDS011;63257;55.082;38.772;2022-12-08T08:37:44;7.85;;;2.92;;
71947;SDS011;63257;55.082;38.772;2022-12-08T08:40:10;10.65;;;3.40;;
71947;SDS011;63257;55.082;38.772;2022-12-08T08:42:36;7.13;;;3.13;;
71947;SDS011;63257;55.082;38.772;2022-12-08T08:45:02;7.75;;;3.28;;
71947;SDS011;63257;55.082;38.772;2022-12-08T08:47:29;11.57;;;3.97;;
71947;SDS011;63257;55.082;38.772;2022-12-08T08:49:56;9.23;;;3.72;;
71947;SDS011;63257;55.082;38.772;2022-12-08T08:52:22;10.73;;;3.72;;
71947;SDS011;63257;55.082;38.772;2022-12-08T08:54:48;6.90;;;2.57;;
71947;SDS011;63257;55.082;38.772;2022-12-08T08:57:14;10.77;;;3.78;;
71947;SDS011;63257;55.082;38.772;2022-12-08T08:59:40;11.27;;;4.17;;
71947;SDS011;63257;55.082;38.772;2022-12-08T09:02:09;10.43;;;3.83;;
71947;SDS011;63257;55.082;38.772;2022-12-08T09:04:41;11.05;;;3.95;;
71947;SDS011;63257;55.082;38.772;2022-12-08T09:07:07;12.40;;;3.77;;
71947;SDS011;63257;55.082;38.772;2022-12-08T09:09:33;7.28;;;2.78;;
71947;SDS011;63257;55.082;38.772;2022-12-08T09:11:59;9.45;;;3.97;;
71947;SDS011;63257;55.082;38.772;2022-12-08T09:14:26;13.07;;;4.10;;
71947;SDS011;63257;55.082;38.772;2022-12-08T09:16:52;9.80;;;3.92;;
71947;SDS011;63257;55.082;38.772;2022-12-08T09:19:18;13.83;;;4.37;;
71947;SDS011;63257;55.082;38.772;2022-12-08T09:21:44;9.57;;;4.32;;
71947;SDS011;63257;55.082;38.772;2022-12-08T09:24:09;9.43;;;3.60;;
71947;SDS011;63257;55.082;38.772;2022-12-08T09:26:40;11.90;;;4.27;;
71947;SDS011;63257;55.082;38.772;2022-12-08T09:29:08;10.15;;;4.00;;
71947;SDS011;63257;55.082;38.772;2022-12-08T09:31:34;11.45;;;4.00;;
71947;SDS011;63257;55.082;38.772;2022-12-08T09:34:02;14.23;;;5.17;;
71947;SDS011;63257;55.082;38.772;2022-12-08T09:36:30;11.15;;;3.38;;
71947;SDS011;63257;55.082;38.772;2022-12-08T09:38:56;12.68;;;6.05;;
71947;SDS011;63257;55.082;38.772;2022-12-08T09:41:27;11.40;;;4.40;;
71947;SDS011;63257;55.082;38.772;2022-12-08T09:46:31;10.60;;;4.05;;
71947;SDS011;63257;55.082;38.772;2022-12-08T09:48:59;9.98;;;3.75;;
71947;SDS011;63257;55.082;38.772;2022-12-08T09:51:29;11.47;;;3.83;;
71947;SDS011;63257;55.082;38.772;2022-12-08T09:56:32;10.70;;;4.22;;
71947;SDS011;63257;55.082;38.772;2022-12-08T09:59:03;11.63;;;4.10;;
71947;SDS011;63257;55.082;38.772;2022-12-08T10:01:43;11.35;;;4.20;;
71947;SDS011;63257;55.082;38.772;2022-12-08T10:04:24;11.75;;;4.35;;
71947;SDS011;63257;55.082;38.772;2022-12-08T10:18:18;11.73;;;4.37;;
71947;SDS011;63257;55.082;38.772;2022-12-08T10:20:48;13.10;;;4.50;;
71947;SDS011;63257;55.082;38.772;2022-12-08T10:23:34;11.63;;;4.55;;
71947;SDS011;63257;55.082;38.772;2022-12-08T10:26:05;15.70;;;4.83;;
71947;SDS011;63257;55.082;38.772;2022-12-08T10:28:35;12.90;;;4.82;;
71947;SDS011;63257;55.082;38.772;2022-12-08T10:31:02;12.27;;;3.63;;
71947;SDS011;63257;55.082;38.772;2022-12-08T10:33:31;10.48;;;3.90;;
71947;SDS011;63257;55.082;38.772;2022-12-08T10:35:58;11.77;;;4.40;;
71947;SDS011;63257;55.082;38.772;2022-12-08T10:38:33;11.68;;;4.78;;
71947;SDS011;63257;55.082;38.772;2022-12-08T10:43:42;11.40;;;4.40;;
71947;SDS011;63257;55.082;38.772;2022-12-08T10:48:52;14.40;;;4.85;;
71947;SDS011;63257;55.082;38.772;2022-12-08T10:51:23;13.33;;;4.87;;
71947;SDS011;63257;55.082;38.772;2022-12-08T10:54:04;11.60;;;3.88;;
71947;SDS011;63257;55.082;38.772;2022-12-08T10:56:54;11.35;;;4.97;;
71947;SDS011;63257;55.082;38.772;2022-12-08T10:59:22;11.35;;;4.53;;
71947;SDS011;63257;55.082;38.772;2022-12-08T11:01:57;11.57;;;5.57;;
71947;SDS011;63257;55.082;38.772;2022-12-08T11:07:04;10.93;;;4.78;;
71947;SDS011;63257;55.082;38.772;2022-12-08T11:12:27;12.90;;;4.90;;
71947;SDS011;63257;55.082;38.772;2022-12-08T11:18:22;13.63;;;4.87;;
71947;SDS011;63257;55.082;38.772;2022-12-08T11:21:10;11.65;;;4.78;;
71947;SDS011;63257;55.082;38.772;2022-12-08T11:23:40;13.15;;;4.85;;
71947;SDS011;63257;55.082;38.772;2022-12-08T11:29:23;12.73;;;4.50;;
71947;SDS011;63257;55.082;38.772;2022-12-08T11:31:55;14.32;;;5.00;;
71947;SDS011;63257;55.082;38.772;2022-12-08T11:36:56;13.23;;;4.23;;
71947;SDS011;63257;55.082;38.772;2022-12-08T11:39:24;11.80;;;4.32;;
71947;SDS011;63257;55.082;38.772;2022-12-08T11:41:52;11.15;;;4.50;;
71947;SDS011;63257;55.082;38.772;2022-12-08T11:44:44;14.10;;;5.30;;
71947;SDS011;63257;55.082;38.772;2022-12-08T11:47:16;13.95;;;5.20;;
71947;SDS011;63257;55.082;38.772;2022-12-08T11:49:52;11.38;;;4.60;;
71947;SDS011;63257;55.082;38.772;2022-12-08T11:52:29;13.50;;;5.03;;
71947;SDS011;63257;55.082;38.772;2022-12-08T11:55:03;11.77;;;4.50;;
71947;SDS011;63257;55.082;38.772;2022-12-08T11:57:42;14.77;;;4.95;;
71947;SDS011;63257;55.082;38.772;2022-12-08T12:00:10;15.02;;;5.57;;
71947;SDS011;63257;55.082;38.772;2022-12-08T12:02:41;13.53;;;4.30;;
71947;SDS011;63257;55.082;38.772;2022-12-08T12:10:57;15.60;;;6.03;;
71947;SDS011;63257;55.082;38.772;2022-12-08T12:14:06;11.82;;;3.78;;
71947;SDS011;63257;55.082;38.772;2022-12-08T12:17:17;13.10;;;4.72;;
71947;SDS011;63257;55.082;38.772;2022-12-08T12:19:50;12.27;;;4.10;;
71947;SDS011;63257;55.082;38.772;2022-12-08T12:22:18;14.88;;;5.57;;
71947;SDS011;63257;55.082;38.772;2022-12-08T12:24:48;16.17;;;5.32;;
71947;SDS011;63257;55.082;38.772;2022-12-08T12:27:36;15.55;;;5.25;;
71947;SDS011;63257;55.082;38.772;2022-12-08T12:30:07;9.10;;;3.47;;
71947;SDS011;63257;55.082;38.772;2022-12-08T12:32:44;13.27;;;5.30;;
71947;SDS011;63257;55.082;38.772;2022-12-08T12:35:33;13.15;;;4.55;;
71947;SDS011;63257;55.082;38.772;2022-12-08T12:38:18;15.43;;;5.03;;
71947;SDS011;63257;55.082;38.772;2022-12-08T12:41:14;16.92;;;5.50;;
71947;SDS011;63257;55.082;38.772;2022-12-08T12:52:33;15.88;;;5.35;;
71947;SDS011;63257;55.082;38.772;2022-12-08T12:57:22;16.50;;;5.87;;
71947;SDS011;63257;55.082;38.772;2022-12-08T13:08:01;15.05;;;5.30;;
71947;SDS011;63257;55.082;38.772;2022-12-08T13:13:25;19.40;;;5.33;;
71947;SDS011;63257;55.082;38.772;2022-12-08T13:15:52;12.77;;;4.95;;
71947;SDS011;63257;55.082;38.772;2022-12-08T13:18:42;14.90;;;5.43;;
71947;SDS011;63257;55.082;38.772;2022-12-08T13:21:13;10.23;;;3.80;;
71947;SDS011;63257;55.082;38.772;2022-12-08T13:23:47;15.10;;;5.80;;
71947;SDS011;63257;55.082;38.772;2022-12-08T13:26:25;14.32;;;5.53;;
71947;SDS011;63257;55.082;38.772;2022-12-08T13:31:36;12.95;;;5.15;;
71947;SDS011;63257;55.082;38.772;2022-12-08T13:37:30;16.23;;;5.78;;
71947;SDS011;63257;55.082;38.772;2022-12-08T13:40:08;16.50;;;6.03;;
71947;SDS011;63257;55.082;38.772;2022-12-08T13:45:20;15.30;;;5.32;;
71947;SDS011;63257;55.082;38.772;2022-12-08T13:47:57;16.37;;;5.93;;
71947;SDS011;63257;55.082;38.772;2022-12-08T13:50:38;12.43;;;4.35;;
71947;SDS011;63257;55.082;38.772;2022-12-08T13:55:39;14.38;;;5.35;;
71947;SDS011;63257;55.082;38.772;2022-12-08T13:58:24;14.35;;;5.80;;
71947;SDS011;63257;55.082;38.772;2022-12-08T14:03:43;15.90;;;6.00;;
71947;SDS011;63257;55.082;38.772;2022-12-08T14:06:18;14.37;;;4.70;;
71947;SDS011;63257;55.082;38.772;2022-12-08T14:08:50;17.73;;;6.25;;
71947;SDS011;63257;55.082;38.772;2022-12-08T14:11:23;16.05;;;5.30;;
71947;SDS011;63257;55.082;38.772;2022-12-08T14:14:02;15.07;;;5.90;;
71947;SDS011;63257;55.082;38.772;2022-12-08T14:16:32;18.45;;;6.20;;
71947;SDS011;63257;55.082;38.772;2022-12-08T14:19:03;15.38;;;5.57;;
71947;SDS011;63257;55.082;38.772;2022-12-08T14:21:52;16.52;;;6.00;;
71947;SDS011;63257;55.082;38.772;2022-12-08T14:24:24;12.93;;;5.20;;
71947;SDS011;63257;55.082;38.772;2022-12-08T14:26:52;17.70;;;6.78;;
71947;SDS011;63257;55.082;38.772;2022-12-08T14:32:02;16.70;;;6.13;;
71947;SDS011;63257;55.082;38.772;2022-12-08T14:34:33;14.52;;;5.82;;
71947;SDS011;63257;55.082;38.772;2022-12-08T14:37:06;14.70;;;6.50;;
71947;SDS011;63257;55.082;38.772;2022-12-08T14:39:36;16.77;;;6.00;;
71947;SDS011;63257;55.082;38.772;2022-12-08T14:42:03;16.25;;;5.75;;
71947;SDS011;63257;55.082;38.772;2022-12-08T14:44:47;16.83;;;6.07;;
71947;SDS011;63257;55.082;38.772;2022-12-08T14:47:19;15.73;;;6.20;;
71947;SDS011;63257;55.082;38.772;2022-12-08T14:49:45;17.52;;;6.22;;
71947;SDS011;63257;55.082;38.772;2022-12-08T14:52:12;17.13;;;6.55;;
71947;SDS011;63257;55.082;38.772;2022-12-08T14:54:38;18.33;;;6.20;;
71947;SDS011;63257;55.082;38.772;2022-12-08T14:57:11;19.88;;;5.25;;
71947;SDS011;63257;55.082;38.772;2022-12-08T14:59:39;15.98;;;6.13;;
71947;SDS011;63257;55.082;38.772;2022-12-08T15:04:50;19.73;;;6.87;;
71947;SDS011;63257;55.082;38.772;2022-12-08T15:07:22;16.90;;;6.63;;
71947;SDS011;63257;55.082;38.772;2022-12-08T15:10:07;21.85;;;6.80;;
71947;SDS011;63257;55.082;38.772;2022-12-08T15:15:30;19.48;;;5.40;;
71947;SDS011;63257;55.082;38.772;2022-12-08T15:20:40;17.88;;;6.53;;
71947;SDS011;63257;55.082;38.772;2022-12-08T15:23:21;19.40;;;6.85;;
71947;SDS011;63257;55.082;38.772;2022-12-08T15:25:57;15.40;;;6.40;;
71947;SDS011;63257;55.082;38.772;2022-12-08T15:28:28;16.73;;;6.30;;
71947;SDS011;63257;55.082;38.772;2022-12-08T15:30:54;17.47;;;6.73;;
71947;SDS011;63257;55.082;38.772;2022-12-08T15:33:20;21.67;;;6.65;;
71947;SDS011;63257;55.082;38.772;2022-12-08T15:35:48;16.30;;;6.32;;
71947;SDS011;63257;55.082;38.772;2022-12-08T15:38:19;15.77;;;5.67;;
71947;SDS011;63257;55.082;38.772;2022-12-08T15:40:49;16.65;;;6.03;;
71947;SDS011;63257;55.082;38.772;2022-12-08T15:43:16;15.05;;;5.65;;
71947;SDS011;63257;55.082;38.772;2022-12-08T15:45:41;15.10;;;6.00;;
71947;SDS011;63257;55.082;38.772;2022-12-08T15:48:15;21.80;;;7.25;;
71947;SDS011;63257;55.082;38.772;2022-12-08T15:50:46;18.52;;;6.60;;
71947;SDS011;63257;55.082;38.772;2022-12-08T15:53:13;16.63;;;6.47;;
71947;SDS011;63257;55.082;38.772;2022-12-08T15:55:39;15.07;;;6.15;;
71947;SDS011;63257;55.082;38.772;2022-12-08T15:58:06;17.27;;;6.63;;
71947;SDS011;63257;55.082;38.772;2022-12-08T16:00:33;14.17;;;6.50;;
71947;SDS011;63257;55.082;38.772;2022-12-08T16:03:01;14.40;;;6.30;;
71947;SDS011;63257;55.082;38.772;2022-12-08T16:05:29;16.75;;;6.15;;
71947;SDS011;63257;55.082;38.772;2022-12-08T16:07:55;17.77;;;6.70;;
71947;SDS011;63257;55.082;38.772;2022-12-08T16:10:23;16.02;;;6.13;;
71947;SDS011;63257;55.082;38.772;2022-12-08T16:12:51;18.17;;;6.97;;
71947;SDS011;63257;55.082;38.772;2022-12-08T16:15:37;18.33;;;6.75;;
71947;SDS011;63257;55.082;38.772;2022-12-08T16:18:11;16.87;;;6.67;;
71947;SDS011;63257;55.082;38.772;2022-12-08T16:20:40;17.05;;;6.82;;
71947;SDS011;63257;55.082;38.772;2022-12-08T16:23:07;17.15;;;5.75;;
71947;SDS011;63257;55.082;38.772;2022-12-08T16:25:33;17.20;;;6.63;;
71947;SDS011;63257;55.082;38.772;2022-12-08T16:27:59;16.27;;;6.15;;
71947;SDS011;63257;55.082;38.772;2022-12-08T16:30:25;14.20;;;5.75;;
71947;SDS011;63257;55.082;38.772;2022-12-08T16:32:51;17.93;;;6.53;;
71947;SDS011;63257;55.082;38.772;2022-12-08T16:35:17;15.70;;;6.07;;
71947;SDS011;63257;55.082;38.772;2022-12-08T16:37:43;16.00;;;6.40;;
71947;SDS011;63257;55.082;38.772;2022-12-08T16:40:10;15.05;;;6.25;;
71947;SDS011;63257;55.082;38.772;2022-12-08T16:42:38;21.38;;;6.47;;
71947;SDS011;63257;55.082;38.772;2022-12-08T16:45:46;16.20;;;6.43;;